sensor_id;sensor_type;location;lat;lon;timestamp;pressure;altitude;pressure_sealevel;temperature;humidity
60920;BME280;59039;52.108;19.942;2022-11-15T00:00:50;101033.48;;;5.14;87.53
60920;BME280;59039;52.108;19.942;2022-11-15T00:03:17;101023.89;;;5.14;87.36
60920;BME280;59039;52.108;19.942;2022-11-15T00:05:43;101015.70;;;5.13;87.39
60920;BME280;59039;52.108;19.942;2022-11-15T00:08:09;101014.02;;;5.09;87.53
60920;BME280;59039;52.108;19.942;2022-11-15T00:10:34;101012.98;;;5.06;87.66
60920;BME280;59039;52.108;19.942;2022-11-15T00:13:00;101008.12;;;5.03;87.75
60920;BME280;59039;52.108;19.942;2022-11-15T00:15:25;101002.27;;;5.02;87.72
60920;BME280;59039;52.108;19.942;2022-11-15T00:17:50;101001.52;;;5.02;87.64
60920;BME280;59039;52.108;19.942;2022-11-15T00:20:17;101002.46;;;5.01;87.71
60920;BME280;59039;52.108;19.942;2022-11-15T00:22:42;101002.14;;;5.01;87.71
60920;BME280;59039;52.108;19.942;2022-11-15T00:25:07;101001.92;;;5.02;87.69
60920;BME280;59039;52.108;19.942;2022-11-15T00:27:33;100996.09;;;5.03;87.70
60920;BME280;59039;52.108;19.942;2022-11-15T00:29:58;100994.45;;;5.03;87.68
60920;BME280;59039;52.108;19.942;2022-11-15T00:32:23;100993.48;;;5.05;87.72
60920;BME280;59039;52.108;19.942;2022-11-15T00:34:48;100986.79;;;5.06;87.67
60920;BME280;59039;52.108;19.942;2022-11-15T00:37:13;100983.33;;;5.06;87.87
60920;BME280;59039;52.108;19.942;2022-11-15T00:39:38;100983.52;;;5.09;87.99
60920;BME280;59039;52.108;19.942;2022-11-15T00:42:04;100983.70;;;5.11;87.85
60920;BME280;59039;52.108;19.942;2022-11-15T00:44:29;100981.23;;;5.13;87.68
60920;BME280;59039;52.108;19.942;2022-11-15T00:46:54;100982.08;;;5.11;87.67
60920;BME280;59039;52.108;19.942;2022-11-15T00:49:19;100978.66;;;5.11;87.71
60920;BME280;59039;52.108;19.942;2022-11-15T00:51:44;100975.63;;;5.11;87.75
60920;BME280;59039;52.108;19.942;2022-11-15T00:54:10;100967.02;;;5.11;87.61
60920;BME280;59039;52.108;19.942;2022-11-15T00:56:35;100963.08;;;5.08;87.65
60920;BME280;59039;52.108;19.942;2022-11-15T00:59:00;100957.64;;;5.06;87.64
60920;BME280;59039;52.108;19.942;2022-11-15T01:01:25;100954.52;;;5.05;87.71
60920;BME280;59039;52.108;19.942;2022-11-15T01:03:50;100952.80;;;5.03;87.68
60920;BME280;59039;52.108;19.942;2022-11-15T01:06:15;100949.13;;;5.02;87.68
60920;BME280;59039;52.108;19.942;2022-11-15T01:08:41;100949.48;;;5.01;87.84
60920;BME280;59039;52.108;19.942;2022-11-15T01:11:09;100946.95;;;5.02;87.76
60920;BME280;59039;52.108;19.942;2022-11-15T01:13:36;100937.52;;;5.03;87.84
60920;BME280;59039;52.108;19.942;2022-11-15T01:16:14;100936.94;;;5.04;87.86
60920;BME280;59039;52.108;19.942;2022-11-15T01:18:40;100935.91;;;5.06;87.87
60920;BME280;59039;52.108;19.942;2022-11-15T01:21:08;100932.44;;;5.07;87.75
60920;BME280;59039;52.108;19.942;2022-11-15T01:23:33;100933.95;;;5.06;87.75
60920;BME280;59039;52.108;19.942;2022-11-15T01:26:03;100934.00;;;5.05;87.79
60920;BME280;59039;52.108;19.942;2022-11-15T01:28:33;100932.88;;;5.06;87.74
60920;BME280;59039;52.108;19.942;2022-11-15T01:31:00;100932.23;;;5.05;87.77
60920;BME280;59039;52.108;19.942;2022-11-15T01:33:27;100924.64;;;5.05;87.78
60920;BME280;59039;52.108;19.942;2022-11-15T01:35:52;100921.41;;;5.05;87.76
60920;BME280;59039;52.108;19.942;2022-11-15T01:38:17;100920.67;;;5.06;87.78
60920;BME280;59039;52.108;19.942;2022-11-15T01:40:43;100911.92;;;5.05;87.59
60920;BME280;59039;52.108;19.942;2022-11-15T01:43:29;100913.41;;;5.04;87.84
60920;BME280;59039;52.108;19.942;2022-11-15T01:46:14;100917.41;;;5.06;88.06
60920;BME280;59039;52.108;19.942;2022-11-15T01:48:44;100916.69;;;5.09;87.99
60920;BME280;59039;52.108;19.942;2022-11-15T01:51:13;100909.92;;;5.11;87.87
60920;BME280;59039;52.108;19.942;2022-11-15T01:53:42;100908.02;;;5.12;88.03
60920;BME280;59039;52.108;19.942;2022-11-15T01:56:14;100900.44;;;5.15;88.05
60920;BME280;59039;52.108;19.942;2022-11-15T01:58:40;100891.33;;;5.17;87.93
60920;BME280;59039;52.108;19.942;2022-11-15T02:01:07;100887.98;;;5.18;87.90
60920;BME280;59039;52.108;19.942;2022-11-15T02:03:41;100880.26;;;5.21;87.92
60920;BME280;59039;52.108;19.942;2022-11-15T02:06:09;100878.54;;;5.22;87.79
60920;BME280;59039;52.108;19.942;2022-11-15T02:08:35;100884.14;;;5.25;87.84
60920;BME280;59039;52.108;19.942;2022-11-15T02:11:00;100878.09;;;5.26;87.70
60920;BME280;59039;52.108;19.942;2022-11-15T02:13:25;100880.24;;;5.26;87.56
60920;BME280;59039;52.108;19.942;2022-11-15T02:18:27;100872.82;;;5.27;87.48
60920;BME280;59039;52.108;19.942;2022-11-15T02:21:06;100876.64;;;5.26;87.50
60920;BME280;59039;52.108;19.942;2022-11-15T02:24:09;100873.78;;;5.26;87.51
60920;BME280;59039;52.108;19.942;2022-11-15T02:29:51;100865.23;;;5.22;87.43
60920;BME280;59039;52.108;19.942;2022-11-15T02:35:16;100865.30;;;5.19;87.47
60920;BME280;59039;52.108;19.942;2022-11-15T02:37:57;100864.23;;;5.19;87.39
60920;BME280;59039;52.108;19.942;2022-11-15T02:40:42;100864.19;;;5.17;87.40
60920;BME280;59039;52.108;19.942;2022-11-15T02:43:12;100862.80;;;5.16;87.47
60920;BME280;59039;52.108;19.942;2022-11-15T02:45:46;100862.83;;;5.16;87.51
60920;BME280;59039;52.108;19.942;2022-11-15T02:48:14;100869.73;;;5.18;87.67
60920;BME280;59039;52.108;19.942;2022-11-15T02:50:41;100864.61;;;5.19;87.66
60920;BME280;59039;52.108;19.942;2022-11-15T02:53:08;100859.38;;;5.19;87.50
60920;BME280;59039;52.108;19.942;2022-11-15T02:55:38;100863.02;;;5.18;87.56
60920;BME280;59039;52.108;19.942;2022-11-15T02:58:41;100858.64;;;5.19;87.60
60920;BME280;59039;52.108;19.942;2022-11-15T03:01:37;100851.77;;;5.20;87.62
60920;BME280;59039;52.108;19.942;2022-11-15T03:09:42;100842.39;;;5.20;87.44
60920;BME280;59039;52.108;19.942;2022-11-15T03:12:16;100842.04;;;5.20;87.61
60920;BME280;59039;52.108;19.942;2022-11-15T03:14:57;100839.08;;;5.21;87.49
60920;BME280;59039;52.108;19.942;2022-11-15T03:17:28;100830.77;;;5.22;87.47
60920;BME280;59039;52.108;19.942;2022-11-15T03:20:00;100828.52;;;5.23;87.49
60920;BME280;59039;52.108;19.942;2022-11-15T03:22:29;100827.01;;;5.24;87.49
60920;BME280;59039;52.108;19.942;2022-11-15T03:25:02;100822.43;;;5.26;87.48
60920;BME280;59039;52.108;19.942;2022-11-15T03:27:33;100816.94;;;5.27;87.46
60920;BME280;59039;52.108;19.942;2022-11-15T03:30:05;100813.83;;;5.28;87.49
60920;BME280;59039;52.108;19.942;2022-11-15T03:32:35;100809.08;;;5.29;87.36
60920;BME280;59039;52.108;19.942;2022-11-15T03:35:09;100809.63;;;5.29;87.31
60920;BME280;59039;52.108;19.942;2022-11-15T03:40:33;100804.66;;;5.30;87.31
60920;BME280;59039;52.108;19.942;2022-11-15T03:43:09;100803.95;;;5.30;87.26
60920;BME280;59039;52.108;19.942;2022-11-15T03:45:43;100801.39;;;5.31;87.21
60920;BME280;59039;52.108;19.942;2022-11-15T03:48:21;100799.97;;;5.31;87.25
60920;BME280;59039;52.108;19.942;2022-11-15T03:50:48;100803.53;;;5.31;87.18
60920;BME280;59039;52.108;19.942;2022-11-15T03:53:14;100805.28;;;5.32;87.14
60920;BME280;59039;52.108;19.942;2022-11-15T03:55:39;100802.93;;;5.32;87.17
60920;BME280;59039;52.108;19.942;2022-11-15T03:58:04;100799.07;;;5.30;87.18
60920;BME280;59039;52.108;19.942;2022-11-15T04:00:30;100798.55;;;5.30;87.13
60920;BME280;59039;52.108;19.942;2022-11-15T04:02:55;100797.51;;;5.30;87.15
60920;BME280;59039;52.108;19.942;2022-11-15T04:05:21;100793.58;;;5.30;87.19
60920;BME280;59039;52.108;19.942;2022-11-15T04:07:46;100792.31;;;5.30;87.25
60920;BME280;59039;52.108;19.942;2022-11-15T04:10:11;100788.51;;;5.30;87.20
60920;BME280;59039;52.108;19.942;2022-11-15T04:12:40;100785.42;;;5.31;87.32
60920;BME280;59039;52.108;19.942;2022-11-15T04:15:07;100780.71;;;5.31;87.26
60920;BME280;59039;52.108;19.942;2022-11-15T04:17:51;100776.75;;;5.31;87.28
60920;BME280;59039;52.108;19.942;2022-11-15T04:22:48;100770.05;;;5.32;87.25
60920;BME280;59039;52.108;19.942;2022-11-15T04:25:13;100763.77;;;5.32;87.33
60920;BME280;59039;52.108;19.942;2022-11-15T04:27:39;100756.75;;;5.32;87.21
60920;BME280;59039;52.108;19.942;2022-11-15T04:30:05;100754.25;;;5.32;87.27
60920;BME280;59039;52.108;19.942;2022-11-15T04:32:30;100752.75;;;5.33;87.34
60920;BME280;59039;52.108;19.942;2022-11-15T04:34:55;100750.17;;;5.33;87.25
60920;BME280;59039;52.108;19.942;2022-11-15T04:37:20;100749.13;;;5.33;87.36
60920;BME280;59039;52.108;19.942;2022-11-15T04:39:45;100742.58;;;5.34;87.35
60920;BME280;59039;52.108;19.942;2022-11-15T04:42:11;100743.77;;;5.35;87.29
60920;BME280;59039;52.108;19.942;2022-11-15T04:44:36;100745.73;;;5.35;87.18
60920;BME280;59039;52.108;19.942;2022-11-15T04:47:03;100741.42;;;5.35;87.37
60920;BME280;59039;52.108;19.942;2022-11-15T04:49:28;100743.55;;;5.35;87.29
60920;BME280;59039;52.108;19.942;2022-11-15T04:51:53;100743.91;;;5.35;87.23
60920;BME280;59039;52.108;19.942;2022-11-15T04:54:19;100738.92;;;5.35;87.28
60920;BME280;59039;52.108;19.942;2022-11-15T04:56:44;100743.89;;;5.36;87.25
60920;BME280;59039;52.108;19.942;2022-11-15T04:59:09;100741.18;;;5.36;87.15
60920;BME280;59039;52.108;19.942;2022-11-15T05:01:34;100737.92;;;5.36;87.13
60920;BME280;59039;52.108;19.942;2022-11-15T05:03:59;100736.11;;;5.37;87.16
60920;BME280;59039;52.108;19.942;2022-11-15T05:06:25;100727.99;;;5.37;87.23
60920;BME280;59039;52.108;19.942;2022-11-15T05:08:50;100731.21;;;5.37;87.02
60920;BME280;59039;52.108;19.942;2022-11-15T05:11:15;100733.01;;;5.37;87.12
60920;BME280;59039;52.108;19.942;2022-11-15T05:13:41;100740.14;;;5.38;87.18
60920;BME280;59039;52.108;19.942;2022-11-15T05:16:06;100737.23;;;5.38;87.09
60920;BME280;59039;52.108;19.942;2022-11-15T05:18:31;100732.51;;;5.39;87.02
60920;BME280;59039;52.108;19.942;2022-11-15T05:21:03;100734.20;;;5.40;87.01
60920;BME280;59039;52.108;19.942;2022-11-15T05:23:28;100735.05;;;5.41;86.96
60920;BME280;59039;52.108;19.942;2022-11-15T05:25:59;100731.39;;;5.42;86.95
60920;BME280;59039;52.108;19.942;2022-11-15T05:28:24;100729.38;;;5.42;86.91
60920;BME280;59039;52.108;19.942;2022-11-15T05:30:49;100727.55;;;5.43;86.91
60920;BME280;59039;52.108;19.942;2022-11-15T05:33:15;100733.70;;;5.44;86.91
60920;BME280;59039;52.108;19.942;2022-11-15T05:35:42;100727.38;;;5.45;86.90
60920;BME280;59039;52.108;19.942;2022-11-15T05:38:09;100725.38;;;5.46;86.92
60920;BME280;59039;52.108;19.942;2022-11-15T05:40:35;100724.80;;;5.46;86.91
60920;BME280;59039;52.108;19.942;2022-11-15T05:43:01;100724.20;;;5.47;86.93
60920;BME280;59039;52.108;19.942;2022-11-15T05:45:28;100719.10;;;5.48;86.80
60920;BME280;59039;52.108;19.942;2022-11-15T05:47:56;100718.34;;;5.48;86.80
60920;BME280;59039;52.108;19.942;2022-11-15T05:50:22;100714.40;;;5.48;86.83
60920;BME280;59039;52.108;19.942;2022-11-15T05:52:48;100714.39;;;5.48;86.81
60920;BME280;59039;52.108;19.942;2022-11-15T05:55:13;100710.96;;;5.48;86.86
60920;BME280;59039;52.108;19.942;2022-11-15T05:57:39;100709.34;;;5.48;86.77
60920;BME280;59039;52.108;19.942;2022-11-15T06:00:05;100708.96;;;5.49;86.74
60920;BME280;59039;52.108;19.942;2022-11-15T06:02:30;100710.05;;;5.49;86.75
60920;BME280;59039;52.108;19.942;2022-11-15T06:04:56;100714.39;;;5.48;86.76
60920;BME280;59039;52.108;19.942;2022-11-15T06:07:21;100713.34;;;5.48;86.82
60920;BME280;59039;52.108;19.942;2022-11-15T06:09:47;100715.63;;;5.49;86.79
60920;BME280;59039;52.108;19.942;2022-11-15T06:12:13;100711.16;;;5.48;86.80
60920;BME280;59039;52.108;19.942;2022-11-15T06:14:38;100714.23;;;5.48;86.77
60920;BME280;59039;52.108;19.942;2022-11-15T06:17:03;100716.02;;;5.48;86.83
60920;BME280;59039;52.108;19.942;2022-11-15T06:19:28;100713.51;;;5.48;86.88
60920;BME280;59039;52.108;19.942;2022-11-15T06:21:53;100714.87;;;5.49;86.90
60920;BME280;59039;52.108;19.942;2022-11-15T06:24:19;100712.65;;;5.50;86.91
60920;BME280;59039;52.108;19.942;2022-11-15T06:26:44;100716.34;;;5.51;86.89
60920;BME280;59039;52.108;19.942;2022-11-15T06:29:09;100713.94;;;5.52;86.85
60920;BME280;59039;52.108;19.942;2022-11-15T06:31:34;100713.19;;;5.52;86.91
60920;BME280;59039;52.108;19.942;2022-11-15T06:34:00;100711.22;;;5.52;86.87
60920;BME280;59039;52.108;19.942;2022-11-15T06:36:25;100712.59;;;5.53;86.88
60920;BME280;59039;52.108;19.942;2022-11-15T06:38:50;100714.00;;;5.53;86.88
60920;BME280;59039;52.108;19.942;2022-11-15T06:41:15;100715.73;;;5.54;86.84
60920;BME280;59039;52.108;19.942;2022-11-15T06:43:41;100714.80;;;5.55;86.98
60920;BME280;59039;52.108;19.942;2022-11-15T06:46:07;100712.36;;;5.56;86.95
60920;BME280;59039;52.108;19.942;2022-11-15T06:48:33;100712.65;;;5.57;86.89
60920;BME280;59039;52.108;19.942;2022-11-15T06:51:00;100716.66;;;5.59;86.93
60920;BME280;59039;52.108;19.942;2022-11-15T06:53:26;100717.10;;;5.60;86.92
60920;BME280;59039;52.108;19.942;2022-11-15T06:55:52;100718.23;;;5.62;86.84
60920;BME280;59039;52.108;19.942;2022-11-15T06:58:17;100720.31;;;5.63;86.82
60920;BME280;59039;52.108;19.942;2022-11-15T07:00:43;100716.98;;;5.64;86.83
60920;BME280;59039;52.108;19.942;2022-11-15T07:03:09;100713.83;;;5.65;86.78
60920;BME280;59039;52.108;19.942;2022-11-15T07:05:34;100710.11;;;5.67;86.86
60920;BME280;59039;52.108;19.942;2022-11-15T07:07:59;100705.85;;;5.69;86.85
60920;BME280;59039;52.108;19.942;2022-11-15T07:10:25;100712.29;;;5.69;86.76
60920;BME280;59039;52.108;19.942;2022-11-15T07:12:52;100712.22;;;5.70;86.75
60920;BME280;59039;52.108;19.942;2022-11-15T07:15:18;100710.93;;;5.71;86.79
60920;BME280;59039;52.108;19.942;2022-11-15T07:17:44;100709.67;;;5.73;86.71
60920;BME280;59039;52.108;19.942;2022-11-15T07:20:09;100714.01;;;5.75;86.67
60920;BME280;59039;52.108;19.942;2022-11-15T07:22:35;100718.75;;;5.77;86.69
60920;BME280;59039;52.108;19.942;2022-11-15T07:25:00;100725.10;;;5.78;86.68
60920;BME280;59039;52.108;19.942;2022-11-15T07:27:25;100721.20;;;5.79;86.70
60920;BME280;59039;52.108;19.942;2022-11-15T07:29:51;100728.38;;;5.82;86.66
60920;BME280;59039;52.108;19.942;2022-11-15T07:32:16;100725.62;;;5.83;86.59
60920;BME280;59039;52.108;19.942;2022-11-15T07:34:41;100725.48;;;5.84;86.63
60920;BME280;59039;52.108;19.942;2022-11-15T07:37:06;100721.20;;;5.86;86.61
60920;BME280;59039;52.108;19.942;2022-11-15T07:39:31;100719.63;;;5.88;86.59
60920;BME280;59039;52.108;19.942;2022-11-15T07:41:56;100718.58;;;5.91;86.67
60920;BME280;59039;52.108;19.942;2022-11-15T07:44:22;100716.80;;;5.93;86.53
60920;BME280;59039;52.108;19.942;2022-11-15T07:46:47;100718.88;;;5.94;86.41
60920;BME280;59039;52.108;19.942;2022-11-15T07:49:12;100716.40;;;5.96;86.49
60920;BME280;59039;52.108;19.942;2022-11-15T07:51:37;100715.16;;;5.98;86.46
60920;BME280;59039;52.108;19.942;2022-11-15T07:54:02;100712.48;;;6.00;86.41
60920;BME280;59039;52.108;19.942;2022-11-15T07:56:27;100710.17;;;6.02;86.41
60920;BME280;59039;52.108;19.942;2022-11-15T07:58:53;100709.45;;;6.04;86.36
60920;BME280;59039;52.108;19.942;2022-11-15T08:01:18;100701.77;;;6.06;86.38
60920;BME280;59039;52.108;19.942;2022-11-15T08:03:43;100703.78;;;6.08;86.33
60920;BME280;59039;52.108;19.942;2022-11-15T08:06:08;100697.89;;;6.10;86.28
60920;BME280;59039;52.108;19.942;2022-11-15T08:08:33;100692.46;;;6.12;86.22
60920;BME280;59039;52.108;19.942;2022-11-15T08:10:59;100696.09;;;6.14;86.18
60920;BME280;59039;52.108;19.942;2022-11-15T08:13:24;100697.23;;;6.16;86.21
60920;BME280;59039;52.108;19.942;2022-11-15T08:15:49;100697.07;;;6.18;86.10
60920;BME280;59039;52.108;19.942;2022-11-15T08:18:16;100694.23;;;6.19;86.01
60920;BME280;59039;52.108;19.942;2022-11-15T08:20:42;100688.33;;;6.21;86.01
60920;BME280;59039;52.108;19.942;2022-11-15T08:23:10;100684.41;;;6.23;85.91
60920;BME280;59039;52.108;19.942;2022-11-15T08:25:35;100679.23;;;6.25;85.95
60920;BME280;59039;52.108;19.942;2022-11-15T08:28:03;100680.52;;;6.27;86.03
60920;BME280;59039;52.108;19.942;2022-11-15T08:30:29;100678.14;;;6.30;86.00
60920;BME280;59039;52.108;19.942;2022-11-15T08:32:57;100679.23;;;6.32;85.89
60920;BME280;59039;52.108;19.942;2022-11-15T08:35:23;100676.02;;;6.34;85.79
60920;BME280;59039;52.108;19.942;2022-11-15T08:37:48;100671.34;;;6.36;85.86
60920;BME280;59039;52.108;19.942;2022-11-15T08:40:14;100673.85;;;6.38;85.75
60920;BME280;59039;52.108;19.942;2022-11-15T08:42:40;100674.23;;;6.40;85.67
60920;BME280;59039;52.108;19.942;2022-11-15T08:45:06;100671.20;;;6.42;85.72
60920;BME280;59039;52.108;19.942;2022-11-15T08:47:31;100667.23;;;6.45;85.63
60920;BME280;59039;52.108;19.942;2022-11-15T08:49:57;100660.85;;;6.48;85.66
60920;BME280;59039;52.108;19.942;2022-11-15T08:52:22;100661.05;;;6.50;85.61
60920;BME280;59039;52.108;19.942;2022-11-15T08:54:47;100660.55;;;6.52;85.44
60920;BME280;59039;52.108;19.942;2022-11-15T08:57:13;100656.79;;;6.54;85.35
60920;BME280;59039;52.108;19.942;2022-11-15T08:59:38;100655.56;;;6.56;85.40
60920;BME280;59039;52.108;19.942;2022-11-15T09:02:04;100657.38;;;6.57;85.40
60920;BME280;59039;52.108;19.942;2022-11-15T09:04:29;100654.88;;;6.60;85.33
60920;BME280;59039;52.108;19.942;2022-11-15T09:06:55;100651.84;;;6.62;85.38
60920;BME280;59039;52.108;19.942;2022-11-15T09:09:20;100655.59;;;6.64;85.38
60920;BME280;59039;52.108;19.942;2022-11-15T09:11:45;100654.83;;;6.67;85.39
60920;BME280;59039;52.108;19.942;2022-11-15T09:14:14;100653.33;;;6.70;85.21
60920;BME280;59039;52.108;19.942;2022-11-15T09:16:39;100655.95;;;6.73;85.35
60920;BME280;59039;52.108;19.942;2022-11-15T09:19:05;100654.73;;;6.77;85.32
60920;BME280;59039;52.108;19.942;2022-11-15T09:21:31;100647.64;;;6.80;85.36
60920;BME280;59039;52.108;19.942;2022-11-15T09:23:56;100638.42;;;6.83;85.19
60920;BME280;59039;52.108;19.942;2022-11-15T09:26:22;100636.95;;;6.85;84.99
60920;BME280;59039;52.108;19.942;2022-11-15T09:28:47;100630.95;;;6.88;85.08
60920;BME280;59039;52.108;19.942;2022-11-15T09:31:13;100627.52;;;6.91;84.98
60920;BME280;59039;52.108;19.942;2022-11-15T09:33:38;100624.03;;;6.94;85.01
60920;BME280;59039;52.108;19.942;2022-11-15T09:36:08;100626.46;;;6.97;84.89
60920;BME280;59039;52.108;19.942;2022-11-15T09:38:34;100624.63;;;6.99;84.65
60920;BME280;59039;52.108;19.942;2022-11-15T09:41:20;100620.03;;;7.03;84.76
60920;BME280;59039;52.108;19.942;2022-11-15T09:43:55;100613.09;;;7.06;84.55
60920;BME280;59039;52.108;19.942;2022-11-15T09:49:03;100611.51;;;7.12;84.28
60920;BME280;59039;52.108;19.942;2022-11-15T09:51:37;100613.81;;;7.15;84.55
60920;BME280;59039;52.108;19.942;2022-11-15T09:54:39;100612.13;;;7.18;84.42
60920;BME280;59039;52.108;19.942;2022-11-15T09:57:13;100596.48;;;7.22;84.35
60920;BME280;59039;52.108;19.942;2022-11-15T09:59:56;100598.49;;;7.23;84.09
60920;BME280;59039;52.108;19.942;2022-11-15T10:02:39;100597.20;;;7.26;83.78
60920;BME280;59039;52.108;19.942;2022-11-15T10:05:12;100595.64;;;7.29;84.16
60920;BME280;59039;52.108;19.942;2022-11-15T10:08:06;100596.98;;;7.33;84.14
60920;BME280;59039;52.108;19.942;2022-11-15T10:10:37;100592.80;;;7.35;83.92
60920;BME280;59039;52.108;19.942;2022-11-15T10:13:04;100594.26;;;7.37;83.91
60920;BME280;59039;52.108;19.942;2022-11-15T10:15:29;100591.36;;;7.39;83.93
60920;BME280;59039;52.108;19.942;2022-11-15T10:18:06;100585.20;;;7.42;83.75
60920;BME280;59039;52.108;19.942;2022-11-15T10:20:59;100586.92;;;7.45;83.82
60920;BME280;59039;52.108;19.942;2022-11-15T10:23:26;100586.90;;;7.47;83.81
60920;BME280;59039;52.108;19.942;2022-11-15T10:25:54;100582.97;;;7.49;83.72
60920;BME280;59039;52.108;19.942;2022-11-15T10:28:25;100581.48;;;7.52;83.30
60920;BME280;59039;52.108;19.942;2022-11-15T10:30:57;100575.36;;;7.54;83.40
60920;BME280;59039;52.108;19.942;2022-11-15T10:33:36;100572.46;;;7.56;83.35
60920;BME280;59039;52.108;19.942;2022-11-15T10:38:33;100566.73;;;7.60;83.12
60920;BME280;59039;52.108;19.942;2022-11-15T10:41:07;100564.05;;;7.62;83.45
60920;BME280;59039;52.108;19.942;2022-11-15T10:43:32;100559.89;;;7.64;83.61
60920;BME280;59039;52.108;19.942;2022-11-15T10:46:18;100560.42;;;7.64;83.37
60920;BME280;59039;52.108;19.942;2022-11-15T10:48:44;100560.67;;;7.65;82.93
60920;BME280;59039;52.108;19.942;2022-11-15T10:51:20;100559.08;;;7.67;83.20
60920;BME280;59039;52.108;19.942;2022-11-15T10:53:46;100549.42;;;7.70;83.09
60920;BME280;59039;52.108;19.942;2022-11-15T10:56:13;100548.06;;;7.73;82.87
60920;BME280;59039;52.108;19.942;2022-11-15T10:58:41;100549.45;;;7.76;82.77
60920;BME280;59039;52.108;19.942;2022-11-15T11:03:36;100550.92;;;7.80;82.47
60920;BME280;59039;52.108;19.942;2022-11-15T11:06:06;100548.01;;;7.82;82.44
60920;BME280;59039;52.108;19.942;2022-11-15T11:08:32;100546.11;;;7.83;82.41
60920;BME280;59039;52.108;19.942;2022-11-15T11:10:59;100547.24;;;7.85;82.29
60920;BME280;59039;52.108;19.942;2022-11-15T11:13:28;100544.19;;;7.87;82.08
60920;BME280;59039;52.108;19.942;2022-11-15T11:18:51;100530.93;;;7.90;81.49
60920;BME280;59039;52.108;19.942;2022-11-15T11:21:43;100533.73;;;7.91;81.76
60920;BME280;59039;52.108;19.942;2022-11-15T11:24:44;100522.55;;;7.91;81.28
60920;BME280;59039;52.108;19.942;2022-11-15T11:27:21;100518.71;;;7.91;81.34
60920;BME280;59039;52.108;19.942;2022-11-15T11:32:32;100504.16;;;7.92;81.51
60920;BME280;59039;52.108;19.942;2022-11-15T11:37:52;100497.75;;;7.94;81.44
60920;BME280;59039;52.108;19.942;2022-11-15T11:40:32;100487.41;;;7.92;81.12
60920;BME280;59039;52.108;19.942;2022-11-15T11:46:28;100501.21;;;7.89;81.13
60920;BME280;59039;52.108;19.942;2022-11-15T11:49:29;100504.58;;;7.90;81.04
60920;BME280;59039;52.108;19.942;2022-11-15T11:52:03;100503.48;;;7.90;81.33
60920;BME280;59039;52.108;19.942;2022-11-15T11:57:25;100493.33;;;7.92;81.42
60920;BME280;59039;52.108;19.942;2022-11-15T12:00:00;100490.04;;;7.93;81.44
60920;BME280;59039;52.108;19.942;2022-11-15T12:02:31;100484.14;;;7.94;81.51
60920;BME280;59039;52.108;19.942;2022-11-15T12:05:20;100478.01;;;7.97;81.68
60920;BME280;59039;52.108;19.942;2022-11-15T12:07:49;100479.33;;;7.99;81.48
60920;BME280;59039;52.108;19.942;2022-11-15T12:10:31;100480.86;;;7.99;81.42
60920;BME280;59039;52.108;19.942;2022-11-15T12:13:13;100472.69;;;8.00;81.31
60920;BME280;59039;52.108;19.942;2022-11-15T12:15:54;100470.41;;;7.99;81.39
60920;BME280;59039;52.108;19.942;2022-11-15T12:18:21;100474.19;;;7.99;81.22
60920;BME280;59039;52.108;19.942;2022-11-15T12:21:00;100465.14;;;8.00;81.37
60920;BME280;59039;52.108;19.942;2022-11-15T12:23:32;100456.30;;;8.00;81.13
60920;BME280;59039;52.108;19.942;2022-11-15T12:26:15;100455.23;;;7.99;81.12
60920;BME280;59039;52.108;19.942;2022-11-15T12:31:21;100447.77;;;7.98;81.19
60920;BME280;59039;52.108;19.942;2022-11-15T12:33:49;100450.00;;;7.97;81.32
60920;BME280;59039;52.108;19.942;2022-11-15T12:39:00;100448.69;;;7.96;81.06
60920;BME280;59039;52.108;19.942;2022-11-15T12:41:43;100445.58;;;7.96;81.34
60920;BME280;59039;52.108;19.942;2022-11-15T13:02:23;100425.80;;;7.84;81.16
60920;BME280;59039;52.108;19.942;2022-11-15T13:04:50;100422.20;;;7.81;81.20
60920;BME280;59039;52.108;19.942;2022-11-15T13:10:01;100423.91;;;7.81;81.36
60920;BME280;59039;52.108;19.942;2022-11-15T13:14:59;100419.08;;;7.76;81.48
60920;BME280;59039;52.108;19.942;2022-11-15T13:19:58;100420.74;;;7.69;81.53
60920;BME280;59039;52.108;19.942;2022-11-15T13:22:25;100421.99;;;7.67;81.52
60920;BME280;59039;52.108;19.942;2022-11-15T13:24:51;100419.41;;;7.66;81.59
60920;BME280;59039;52.108;19.942;2022-11-15T13:27:18;100418.41;;;7.65;81.63
60920;BME280;59039;52.108;19.942;2022-11-15T13:29:44;100420.31;;;7.64;81.74
60920;BME280;59039;52.108;19.942;2022-11-15T13:32:13;100418.45;;;7.64;81.77
60920;BME280;59039;52.108;19.942;2022-11-15T13:34:44;100412.19;;;7.64;81.76
60920;BME280;59039;52.108;19.942;2022-11-15T13:39:44;100402.30;;;7.62;81.74
60920;BME280;59039;52.108;19.942;2022-11-15T13:42:15;100399.57;;;7.62;81.73
60920;BME280;59039;52.108;19.942;2022-11-15T13:44:54;100394.41;;;7.61;81.66
60920;BME280;59039;52.108;19.942;2022-11-15T13:47:20;100395.34;;;7.61;81.71
60920;BME280;59039;52.108;19.942;2022-11-15T13:49:45;100396.20;;;7.59;81.77
60920;BME280;59039;52.108;19.942;2022-11-15T13:52:13;100393.17;;;7.57;81.89
60920;BME280;59039;52.108;19.942;2022-11-15T13:59:48;100386.39;;;7.50;81.99
60920;BME280;59039;52.108;19.942;2022-11-15T14:02:19;100391.98;;;7.48;81.96
60920;BME280;59039;52.108;19.942;2022-11-15T14:04:50;100391.10;;;7.45;82.01
60920;BME280;59039;52.108;19.942;2022-11-15T14:07:18;100387.24;;;7.42;82.05
60920;BME280;59039;52.108;19.942;2022-11-15T14:09:44;100389.59;;;7.40;82.18
60920;BME280;59039;52.108;19.942;2022-11-15T14:14:51;100391.06;;;7.36;82.16
60920;BME280;59039;52.108;19.942;2022-11-15T14:17:32;100397.67;;;7.32;82.28
60920;BME280;59039;52.108;19.942;2022-11-15T14:19:58;100401.36;;;7.29;82.30
60920;BME280;59039;52.108;19.942;2022-11-15T14:22:30;100404.76;;;7.27;82.30